Aérodrome :
LOGIN :

S'inscrire | Disclaimer

   EN    FR    IT 

 










Légende :    VFR   VFR Marginal   IFR   IFR Intensif   IFR Très Intensif
Visi : 
Plafond : 
>= 8 km
>= 3000ft
5 à 8 km
1000 à 3000 ft
1500m à 5 km
500 à 1000 ft
800 à 1500m
200 à 500 ft
< 800m
< 200 ft
Symboles :   Orages  Brouillard  Fortes neiges  Fortes précipitations  Vent > 20 kt
SIGMETs :   Divers  Orages  Givrage  Turbulence  Onde Orograph.  Cendres Volcan.







- Altitude de l'aérodrome : 302 ft
- Code IATA : CGN


EDDK - Cologne Bonn

DERNIER METAR :
  • 281720Z 31007KT 270V330 CAVOK 18/06 Q1021 NOSIG

METARs EXPIRÉS :
  • 281650Z 32011KT CAVOK 19/06 Q1020 NOSIG
  • 281620Z 31010KT CAVOK 20/06 Q1020 NOSIG
  • 281550Z 29010KT 260V340 CAVOK 20/06 Q1020 NOSIG
  • 281520Z 29010KT 270V330 CAVOK 21/06 Q1020 NOSIG
  • 281450Z 26008KT 220V330 CAVOK 21/05 Q1020 NOSIG

TAF TAF EDDK
Valide du 28 à 12h jusqu'au 29 à 18h UTC


281100Z 2812/2918 26007KT CAVOK
BECMG 2821/2824 20005KT
BECMG 2908/2911 26010KT
Pas de NOTAMs connus pour ce terrain.



MET'MAP, la Météo Aéronautique d'un coup d'oeil ! - Copyright ORBIFLY Décembre 2007 - Disclaimer

ORBIFLY MET'MAP TEAM :

Programmation & Développement : Alexandra Zaïnal
Conception & Développement : Baudouin d'Aumeries
Co-Programmation & Développement : Marc-Olivier Méhu
Soutien technique & logistique : Manuel Goepfert

Contact : metmap@orbifly.com




SOURCES & CREDITS :

   NOAA